Time;durP1;ratioP1;P1;durP2;ratioP2;P2;SDS_P1;SDS_P2;PMS_P1;PMS_P2;Temp;Humidity;BMP_temperature;BMP_pressure;BME280_temperature;BME280_humidity;BME280_pressure;Samples;Min_cycle;Max_cycle;Signal;HPM_P1;HPM_P2
2022/03/22 00:00:42;;;;;;;44.55;29.10;;;;;;;8.83;77.61;102918.16;5056921;28;20112;-61
2022/03/22 00:03:07;;;;;;;49.90;29.60;;;;;;;8.78;77.44;102930.22;5056984;28;20087;-61
2022/03/22 00:05:33;;;;;;;47.60;30.95;;;;;;;8.72;77.76;102928.31;5057215;28;20025;-61
2022/03/22 00:08:00;;;;;;;53.70;30.05;;;;;;;8.65;77.98;102921.16;5056952;28;20040;-61
2022/03/22 00:10:27;;;;;;;48.42;30.38;;;;;;;8.61;78.34;102939.31;5057003;28;20039;-61
2022/03/22 00:12:52;;;;;;;47.53;30.08;;;;;;;8.65;78.31;102936.81;5057261;28;20033;-61
2022/03/22 00:15:18;;;;;;;51.20;31.60;;;;;;;8.58;78.45;102928.78;5057022;28;20044;-61
2022/03/22 00:17:43;;;;;;;48.45;30.13;;;;;;;8.63;78.40;102935.91;5056849;28;20424;-61
2022/03/22 00:20:10;;;;;;;52.58;32.58;;;;;;;8.45;78.46;102911.88;5056520;28;20049;-61
2022/03/22 00:22:40;;;;;;;51.60;31.60;;;;;;;8.54;78.64;102934.72;5056540;28;20047;-61
2022/03/22 00:25:06;;;;;;;50.17;32.53;;;;;;;8.51;78.73;102932.91;5056496;28;20104;-61
2022/03/22 00:27:53;;;;;;;49.35;30.30;;;;;;;8.51;78.70;102926.81;5056590;28;20029;-61
2022/03/22 00:30:19;;;;;;;52.17;31.67;;;;;;;8.48;78.59;102934.59;5056615;28;20053;-61
2022/03/22 00:32:45;;;;;;;47.72;30.67;;;;;;;8.42;78.77;102931.78;5055891;28;20439;-61
2022/03/22 00:35:11;;;;;;;49.95;31.85;;;;;;;8.36;78.92;102935.09;5056455;28;20538;-61
2022/03/22 00:37:40;;;;;;;49.85;32.05;;;;;;;8.34;78.76;102942.88;5056253;28;20112;-61
2022/03/22 00:40:10;;;;;;;51.58;32.25;;;;;;;8.29;79.07;102951.38;5056002;28;20021;-60
2022/03/22 00:42:35;;;;;;;48.28;31.80;;;;;;;8.32;79.04;102944.53;5056106;28;20421;-61
2022/03/22 00:45:01;;;;;;;49.80;31.73;;;;;;;8.24;79.20;102946.03;5056563;28;20094;-60
2022/03/22 00:47:27;;;;;;;50.15;31.77;;;;;;;8.29;79.29;102946.16;5056192;28;20039;-61
2022/03/22 00:49:52;;;;;;;51.05;31.75;;;;;;;8.22;79.20;102923.34;5056281;28;20033;-61
2022/03/22 00:52:17;;;;;;;50.35;32.67;;;;;;;8.18;79.50;102932.78;5056741;28;20041;-61
2022/03/22 00:54:43;;;;;;;51.90;32.70;;;;;;;8.18;79.72;102938.00;5055703;28;20043;-61
2022/03/22 00:57:08;;;;;;;51.92;31.15;;;;;;;8.12;79.82;102934.34;5055906;28;20024;-61
2022/03/22 01:02:17;;;;;;;52.72;32.65;;;;;;;8.12;79.72;102936.97;5056059;28;20444;-61
2022/03/22 01:04:43;;;;;;;49.17;32.33;;;;;;;7.98;80.15;102926.09;5055764;28;20045;-61
2022/03/22 01:07:08;;;;;;;55.08;32.85;;;;;;;8.02;80.08;102939.25;5055769;28;20036;-61
2022/03/22 01:09:34;;;;;;;51.90;32.20;;;;;;;8.07;80.14;102943.75;5055516;28;20116;-61
2022/03/22 01:12:00;;;;;;;53.03;32.50;;;;;;;7.98;79.91;102937.41;5056008;28;20033;-61
2022/03/22 01:14:28;;;;;;;50.35;32.53;;;;;;;8.02;80.25;102949.69;5055663;28;20036;-61
2022/03/22 01:16:54;;;;;;;51.45;31.45;;;;;;;8.00;79.92;102942.66;5055631;28;20428;-61
2022/03/22 01:19:21;;;;;;;52.58;31.90;;;;;;;8.01;80.14;102942.72;5055299;28;20031;-61
2022/03/22 01:21:47;;;;;;;51.15;32.08;;;;;;;7.98;80.19;102945.22;5055937;28;20312;-61
2022/03/22 01:24:12;;;;;;;50.45;31.83;;;;;;;7.94;80.15;102939.88;5055724;28;20106;-61
2022/03/22 01:26:38;;;;;;;52.33;31.42;;;;;;;7.95;80.13;102939.94;5055505;28;20040;-61
2022/03/22 01:29:04;;;;;;;51.80;32.28;;;;;;;7.92;80.45;102946.78;5055379;28;20048;-61
2022/03/22 01:31:29;;;;;;;49.92;31.08;;;;;;;7.87;79.96;102932.69;5055607;28;20432;-61
2022/03/22 01:33:54;;;;;;;52.55;31.83;;;;;;;7.91;80.54;102947.59;5055290;28;20029;-61
2022/03/22 01:36:21;;;;;;;50.28;31.65;;;;;;;7.89;80.27;102950.16;5055479;28;20033;-61
2022/03/22 01:38:47;;;;;;;52.92;30.75;;;;;;;7.79;80.62;102934.19;5054955;28;20416;-61
2022/03/22 01:41:13;;;;;;;49.50;32.55;;;;;;;7.92;81.06;102954.59;5055118;28;20040;-61
2022/03/22 01:43:39;;;;;;;49.63;30.90;;;;;;;7.88;80.74;102948.38;5055223;28;20025;-61
2022/03/22 01:46:04;;;;;;;47.65;31.45;;;;;;;7.90;80.62;102945.84;5055321;28;20044;-61
2022/03/22 01:48:31;;;;;;;51.75;31.98;;;;;;;7.83;81.07;102946.47;5055079;28;20090;-61
2022/03/22 01:50:56;;;;;;;51.22;30.52;;;;;;;7.79;81.42;102945.50;5055154;28;20463;-61
2022/03/22 01:53:22;;;;;;;46.03;30.25;;;;;;;7.76;81.16;102949.72;5055131;28;20111;-61
2022/03/22 01:55:47;;;;;;;48.42;29.67;;;;;;;7.78;80.76;102940.25;5055009;28;20032;-61
2022/03/22 01:58:14;;;;;;;48.20;29.23;;;;;;;7.77;81.22;102941.06;5055035;28;20029;-61
2022/03/22 02:00:40;;;;;;;48.63;29.95;;;;;;;7.74;81.08;102941.88;5054959;28;20433;-61
2022/03/22 02:05:51;;;;;;;46.72;28.42;;;;;;;7.71;80.23;102938.28;5055009;28;20047;-62
2022/03/22 02:08:18;;;;;;;43.22;28.35;;;;;;;7.66;81.17;102943.31;5054945;28;20029;-61
2022/03/22 02:10:44;;;;;;;44.97;29.13;;;;;;;7.60;81.26;102924.91;5054823;28;20055;-61
2022/03/22 02:13:09;;;;;;;47.83;30.40;;;;;;;7.58;81.14;102929.19;5054958;28;20029;-61
2022/03/22 02:15:34;;;;;;;44.00;28.92;;;;;;;7.59;81.13;102942.25;5054821;28;20060;-61
2022/03/22 02:18:00;;;;;;;44.25;28.70;;;;;;;7.54;81.56;102929.91;5054093;28;20044;-61
2022/03/22 02:20:26;;;;;;;47.60;28.52;;;;;;;7.52;81.04;102927.25;5054629;28;20087;-61
2022/03/22 02:22:54;;;;;;;43.42;27.95;;;;;;;7.50;81.21;102934.13;5054548;28;20424;-61
2022/03/22 02:25:20;;;;;;;41.85;27.13;;;;;;;7.46;81.52;102928.75;5054765;28;20458;-62
2022/03/22 02:27:47;;;;;;;48.17;28.33;;;;;;;7.36;82.04;102914.56;5054623;28;20036;-61
2022/03/22 02:30:13;;;;;;;43.30;27.73;;;;;;;7.43;81.93;102936.50;5054795;28;20028;-61
2022/03/22 02:32:39;;;;;;;45.17;27.92;;;;;;;7.40;82.05;102933.78;5054743;28;20036;-60
2022/03/22 02:35:06;;;;;;;42.83;27.70;;;;;;;7.36;82.33;102930.19;5054575;28;20479;-61
2022/03/22 02:37:31;;;;;;;42.45;28.35;;;;;;;7.36;82.14;102937.13;5054706;28;20339;-61
2022/03/22 02:39:57;;;;;;;45.63;28.33;;;;;;;7.24;81.69;102933.28;5054643;28;20044;-61
2022/03/22 02:42:22;;;;;;;43.22;28.50;;;;;;;7.25;82.03;102926.34;5054047;28;20128;-61
2022/03/22 02:44:47;;;;;;;46.30;28.20;;;;;;;7.22;82.33;102927.13;5054509;28;20025;-61
2022/03/22 02:47:13;;;;;;;44.10;28.10;;;;;;;7.19;81.80;102932.22;5054224;28;20083;-61
2022/03/22 02:49:39;;;;;;;43.55;26.80;;;;;;;7.19;82.05;102933.94;5054475;28;20040;-61
2022/03/22 02:52:05;;;;;;;40.58;27.15;;;;;;;7.18;81.90;102938.28;5054523;28;20057;-60
2022/03/22 02:54:30;;;;;;;44.28;27.33;;;;;;;7.06;82.27;102913.56;5055198;28;20037;-61
2022/03/22 02:56:56;;;;;;;43.30;25.98;;;;;;;7.13;82.17;102934.63;5058442;28;20078;-61
2022/03/22 02:59:21;;;;;;;41.72;26.85;;;;;;;7.10;82.55;102931.91;5058146;28;20044;-61
2022/03/22 03:01:46;;;;;;;40.20;26.42;;;;;;;7.10;82.52;102937.09;5058283;28;20519;-61
2022/03/22 03:04:11;;;;;;;44.30;27.60;;;;;;;6.99;82.90;102941.06;5058180;28;20025;-61
2022/03/22 03:06:38;;;;;;;43.53;26.08;;;;;;;6.99;82.94;102939.34;5058080;28;20060;-61
2022/03/22 03:09:03;;;;;;;41.92;26.95;;;;;;;6.97;82.82;102941.00;5058058;28;20447;-61
2022/03/22 03:11:29;;;;;;;44.25;26.38;;;;;;;6.96;83.06;102939.25;5058061;28;20033;-61
2022/03/22 03:16:39;;;;;;;41.65;25.92;;;;;;;6.91;82.92;102950.34;5057732;28;20051;-61
2022/03/22 03:19:05;;;;;;;41.25;26.17;;;;;;;6.86;83.14;102944.09;5057764;28;20036;-61
2022/03/22 03:21:30;;;;;;;42.60;26.33;;;;;;;6.83;83.23;102941.38;5057950;28;20049;-61
2022/03/22 03:23:56;;;;;;;47.20;26.42;;;;;;;6.79;83.41;102955.09;5057847;28;20043;-61
2022/03/22 03:26:21;;;;;;;38.88;25.65;;;;;;;6.79;83.52;102939.47;5057761;28;20029;-61
2022/03/22 03:28:47;;;;;;;40.50;25.92;;;;;;;6.69;83.21;102943.47;5057406;28;20033;-61
2022/03/22 03:31:12;;;;;;;42.60;27.42;;;;;;;6.67;83.59;102944.25;5057701;28;20124;-61
2022/03/22 03:33:37;;;;;;;40.30;25.92;;;;;;;6.69;84.02;102946.09;5057917;28;20518;-61
2022/03/22 03:36:03;;;;;;;40.38;25.40;;;;;;;6.67;83.99;102934.72;5057610;28;20036;-61
2022/03/22 03:38:28;;;;;;;39.90;25.25;;;;;;;6.68;83.65;102946.03;5057619;28;20025;-61
2022/03/22 03:43:37;;;;;;;38.40;23.92;;;;;;;6.62;82.76;102957.09;5057481;28;20048;-61
2022/03/22 03:48:46;;;;;;;40.50;25.38;;;;;;;6.54;83.22;102962.03;5057710;28;20064;-61
2022/03/22 03:51:12;;;;;;;40.38;25.13;;;;;;;6.51;83.74;102958.41;5057379;28;20423;-60
2022/03/22 03:53:37;;;;;;;40.92;25.58;;;;;;;6.42;83.28;102947.66;5057052;28;20102;-60
2022/03/22 03:56:02;;;;;;;43.30;26.85;;;;;;;6.54;83.71;102968.94;5057104;28;20029;-60
2022/03/22 03:58:27;;;;;;;42.78;25.42;;;;;;;6.50;83.91;102967.03;5057044;28;20037;-61
2022/03/22 04:00:53;;;;;;;40.92;25.38;;;;;;;6.47;84.07;102973.00;5057153;28;20037;-61
2022/03/22 04:03:18;;;;;;;39.95;24.38;;;;;;;6.43;83.86;102965.91;5056969;28;20044;-61
2022/03/22 04:05:43;;;;;;;38.78;24.90;;;;;;;6.44;83.48;102972.91;5055896;28;20025;-61
2022/03/22 04:08:09;;;;;;;37.38;25.25;;;;;;;6.37;84.42;102977.81;5056507;28;20040;-61
2022/03/22 04:10:35;;;;;;;37.65;24.67;;;;;;;6.37;84.66;102975.22;5056473;28;20359;-61
2022/03/22 04:13:00;;;;;;;38.80;24.65;;;;;;;6.34;84.66;102976.00;5056849;28;20040;-60
2022/03/22 04:15:25;;;;;;;42.75;25.65;;;;;;;6.38;85.56;102975.28;5057111;28;20138;-60
2022/03/22 04:17:51;;;;;;;42.55;26.23;;;;;;;6.43;85.39;102973.72;5056730;28;20439;-61
2022/03/22 04:20:16;;;;;;;40.40;25.02;;;;;;;6.41;85.09;102979.69;5056716;28;20053;-61
2022/03/22 04:22:42;;;;;;;38.45;23.83;;;;;;;6.37;84.87;102975.22;5056487;28;20025;-62
2022/03/22 04:25:08;;;;;;;42.13;25.33;;;;;;;6.20;85.35;102954.66;5056630;28;20021;-60
2022/03/22 04:33:05;;;;;;;39.38;24.50;;;;;;;6.22;84.97;102962.53;5056813;28;20099;-61
2022/03/22 04:35:30;;;;;;;39.70;23.58;;;;;;;6.26;84.81;102970.47;5056403;28;20037;-61
2022/03/22 04:37:57;;;;;;;39.40;24.02;;;;;;;6.29;84.52;102972.31;5053232;28;20068;-61
2022/03/22 04:40:22;;;;;;;38.58;23.60;;;;;;;6.26;85.35;102974.78;5056465;28;20086;-61
2022/03/22 04:42:49;;;;;;;37.60;23.80;;;;;;;6.27;85.45;102977.47;5056205;28;20044;-60
2022/03/22 04:45:15;;;;;;;38.35;24.55;;;;;;;6.20;85.53;102974.59;5056391;28;20414;-61
2022/03/22 04:47:40;;;;;;;38.65;24.05;;;;;;;6.19;85.68;102971.09;5056243;28;20032;-63
2022/03/22 04:50:08;;;;;;;38.08;24.17;;;;;;;6.12;85.61;102975.97;5056117;28;20033;-61
2022/03/22 04:58:03;;;;;;;40.72;24.48;;;;;;;6.10;85.42;102981.13;5056585;28;20367;-61
2022/03/22 05:00:28;;;;;;;38.10;23.85;;;;;;;6.06;85.38;102983.56;5056050;28;20403;-61
2022/03/22 05:02:53;;;;;;;41.50;24.33;;;;;;;6.09;85.72;102986.25;5055794;28;20040;-61
2022/03/22 05:06:25;;;;;;;40.42;23.77;;;;;;;6.05;85.31;102990.47;5055919;28;20120;-60
2022/03/22 05:08:04;;;;;;;39.42;24.20;;;;;;;6.05;85.78;102981.78;5055569;28;20053;-61
2022/03/22 05:10:35;;;;;;;40.05;24.40;;;;;;;6.07;85.82;102987.91;5055456;28;20040;-60
2022/03/22 05:13:00;;;;;;;40.40;23.67;;;;;;;6.06;85.23;102989.63;5055724;28;20025;-61
2022/03/22 05:15:26;;;;;;;38.75;24.17;;;;;;;6.08;85.66;102992.28;5056036;28;20078;-61
2022/03/22 05:17:51;;;;;;;39.25;23.92;;;;;;;6.03;85.82;102991.22;5055250;28;20443;-61
2022/03/22 05:20:17;;;;;;;40.55;24.15;;;;;;;6.07;86.22;102998.28;5055762;28;20053;-61
2022/03/22 05:22:43;;;;;;;39.90;23.13;;;;;;;6.06;85.72;103004.34;5054924;28;20025;-61
2022/03/22 05:25:09;;;;;;;39.53;25.25;;;;;;;5.97;86.11;103006.56;5055602;28;20033;-60
2022/03/22 05:27:36;;;;;;;37.92;23.95;;;;;;;5.97;85.94;103014.38;5055334;28;20029;-60
2022/03/22 05:30:02;;;;;;;35.58;23.55;;;;;;;5.88;86.09;103008.00;5055172;28;20039;-60
2022/03/22 05:32:27;;;;;;;38.92;23.58;;;;;;;5.90;86.34;103008.91;5055566;28;20037;-60
2022/03/22 05:34:52;;;;;;;38.08;24.02;;;;;;;5.89;85.64;103009.72;5055267;28;20421;-60
2022/03/22 05:37:21;;;;;;;35.63;24.45;;;;;;;5.86;86.25;103017.41;5055348;28;20029;-61
2022/03/22 05:39:46;;;;;;;40.97;24.85;;;;;;;5.87;86.75;103013.97;5055308;28;20399;-61
2022/03/22 05:42:13;;;;;;;39.55;24.77;;;;;;;5.80;86.67;103013.66;5054993;28;20078;-60
2022/03/22 05:44:39;;;;;;;40.63;24.10;;;;;;;5.84;86.96;103016.44;5054889;28;20167;-61
2022/03/22 05:47:05;;;;;;;38.15;23.67;;;;;;;5.81;86.75;103018.91;5055272;28;20063;-60
2022/03/22 05:49:30;;;;;;;41.15;24.50;;;;;;;5.82;86.60;103023.28;5055178;28;20098;-60
2022/03/22 05:51:57;;;;;;;40.95;24.65;;;;;;;5.80;86.66;103011.94;5055409;28;20022;-60
2022/03/22 05:54:22;;;;;;;44.00;24.80;;;;;;;5.82;87.01;103012.88;5055175;28;20039;-61
2022/03/22 05:56:47;;;;;;;40.95;24.95;;;;;;;5.79;87.31;103017.06;5054990;28;20032;-61
2022/03/22 05:59:13;;;;;;;43.33;24.67;;;;;;;5.88;87.53;103020.06;5054907;28;20033;-60
2022/03/22 06:01:39;;;;;;;42.83;26.13;;;;;;;5.84;87.63;103010.34;5054917;28;20074;-60
2022/03/22 06:04:05;;;;;;;41.45;24.40;;;;;;;5.92;87.50;103019.38;5055247;28;20020;-60
2022/03/22 06:06:30;;;;;;;41.83;24.70;;;;;;;6.03;86.98;103020.72;5055073;28;20115;-60
2022/03/22 06:08:55;;;;;;;41.42;24.75;;;;;;;6.07;87.06;103022.56;5055054;28;20343;-61
2022/03/22 06:11:21;;;;;;;39.95;24.75;;;;;;;6.09;87.01;103031.31;5054795;28;20025;-60
2022/03/22 06:13:46;;;;;;;41.90;24.83;;;;;;;6.15;87.51;103034.19;5054988;28;20102;-60
2022/03/22 06:16:12;;;;;;;40.05;24.23;;;;;;;6.27;87.48;103032.06;5054847;28;20024;-60
2022/03/22 06:18:37;;;;;;;44.33;25.58;;;;;;;6.34;87.31;103033.19;5055015;28;20037;-60
2022/03/22 06:21:03;;;;;;;39.05;24.88;;;;;;;6.48;87.08;103029.41;5054562;28;20049;-60
2022/03/22 06:23:28;;;;;;;38.58;24.90;;;;;;;6.68;86.25;103027.56;5054842;28;20036;-60
2022/03/22 06:25:54;;;;;;;46.25;25.85;;;;;;;6.91;85.95;103031.03;5054913;28;20033;-60
2022/03/22 06:28:19;;;;;;;39.22;25.80;;;;;;;7.20;84.90;103030.34;5054633;28;20040;-60
2022/03/22 06:30:44;;;;;;;44.30;26.73;;;;;;;7.51;83.59;103032.28;5057131;28;20033;-60
2022/03/22 06:33:13;;;;;;;38.20;23.77;;;;;;;7.68;83.00;103038.97;5058865;28;20044;-60
2022/03/22 06:35:40;;;;;;;42.35;24.85;;;;;;;7.79;82.86;103028.03;5058822;28;20043;-60
2022/03/22 06:38:06;;;;;;;38.88;24.92;;;;;;;8.00;81.79;103032.19;5058681;28;20094;-60
2022/03/22 06:40:34;;;;;;;39.78;25.17;;;;;;;8.15;81.79;103028.28;5058678;28;20107;-61
2022/03/22 06:43:01;;;;;;;40.72;23.85;;;;;;;8.27;80.75;103026.09;5058085;28;20025;-60
2022/03/22 06:45:26;;;;;;;39.70;24.65;;;;;;;8.46;80.39;103032.78;5058051;28;20063;-61
2022/03/22 06:47:52;;;;;;;35.97;24.20;;;;;;;8.62;78.75;103037.63;5057832;28;20025;-60
2022/03/22 06:50:19;;;;;;;40.90;25.35;;;;;;;8.69;78.86;103039.56;5058330;28;20429;-61
2022/03/22 06:52:44;;;;;;;37.38;23.92;;;;;;;8.79;77.64;103040.75;5058530;28;20043;-61
2022/03/22 06:55:12;;;;;;;41.70;25.08;;;;;;;8.88;77.59;103041.00;5058210;28;20112;-60
2022/03/22 06:57:38;;;;;;;35.80;24.35;;;;;;;9.05;76.44;103043.25;5058451;28;20028;-61
2022/03/22 07:00:06;;;;;;;38.65;25.15;;;;;;;9.17;75.06;103047.06;5058338;28;20029;-61
2022/03/22 07:02:32;;;;;;;39.28;24.67;;;;;;;9.26;75.11;103039.44;5058079;28;20037;-60
2022/03/22 07:04:58;;;;;;;40.13;23.45;;;;;;;9.37;74.18;103038.88;5057212;28;20041;-61
2022/03/22 07:07:24;;;;;;;39.95;24.27;;;;;;;9.45;73.31;103038.22;5058381;28;20025;-61
2022/03/22 07:09:49;;;;;;;40.72;24.30;;;;;;;9.59;73.49;103042.06;5058042;28;20041;-61
2022/03/22 07:12:14;;;;;;;41.63;23.75;;;;;;;9.79;72.59;103040.84;5057798;28;20127;-61
2022/03/22 07:14:42;;;;;;;37.35;24.25;;;;;;;9.96;71.91;103042.16;5058179;28;20033;-61
2022/03/22 07:17:08;;;;;;;41.05;24.88;;;;;;;10.11;70.74;103045.13;5057893;28;20029;-61
2022/03/22 07:19:34;;;;;;;39.25;24.92;;;;;;;10.26;70.66;103051.59;5057750;28;20140;-61
2022/03/22 07:22:01;;;;;;;37.08;23.52;;;;;;;10.38;70.16;103039.69;5057519;28;20043;-61
2022/03/22 07:24:27;;;;;;;39.42;23.70;;;;;;;10.52;69.45;103036.50;5057663;28;20124;-61
2022/03/22 07:26:52;;;;;;;37.85;24.60;;;;;;;10.64;68.48;103037.63;5057986;28;20528;-61
2022/03/22 07:29:17;;;;;;;37.17;23.45;;;;;;;10.79;68.02;103047.56;5057852;28;20036;-61
2022/03/22 07:31:42;;;;;;;36.17;22.55;;;;;;;10.93;67.39;103045.22;5057556;28;20032;-61
2022/03/22 07:34:10;;;;;;;36.42;22.80;;;;;;;11.11;68.12;103045.56;5056172;28;20102;-61
2022/03/22 07:36:37;;;;;;;38.40;23.00;;;;;;;11.31;65.98;103049.47;5057919;28;20025;-61
2022/03/22 07:39:03;;;;;;;37.35;22.95;;;;;;;11.41;64.30;103043.56;5057524;28;20028;-61
2022/03/22 07:41:29;;;;;;;37.65;23.48;;;;;;;11.60;63.98;103051.75;5057246;28;20025;-61
2022/03/22 07:43:54;;;;;;;36.55;23.27;;;;;;;11.70;62.82;103037.94;5057541;28;20033;-61
2022/03/22 07:46:20;;;;;;;37.42;23.25;;;;;;;11.85;62.68;103049.59;5057628;28;20036;-61
2022/03/22 07:48:46;;;;;;;36.33;23.17;;;;;;;11.86;61.54;103029.50;5057240;28;20029;-61
2022/03/22 07:53:56;;;;;;;39.28;22.50;;;;;;;12.20;60.33;103042.28;5057154;28;20044;-61
2022/03/22 07:56:21;;;;;;;36.90;22.75;;;;;;;12.35;60.17;103041.63;5057191;28;20059;-61
2022/03/22 07:58:46;;;;;;;36.45;22.58;;;;;;;12.40;60.03;103047.84;5057270;28;20456;-61
2022/03/22 08:01:11;;;;;;;33.15;22.25;;;;;;;12.51;59.41;103043.59;5055932;28;20167;-62
2022/03/22 08:03:37;;;;;;;34.40;22.60;;;;;;;12.61;58.71;103047.25;5057255;28;20033;-61
2022/03/22 08:06:02;;;;;;;33.63;22.73;;;;;;;12.75;58.43;103048.31;5056684;28;20079;-61
2022/03/22 08:08:27;;;;;;;39.13;22.25;;;;;;;12.90;57.80;103045.88;5057190;28;20029;-61
2022/03/22 08:10:53;;;;;;;33.85;21.85;;;;;;;13.18;56.70;103048.84;5055794;28;20029;-64
2022/03/22 08:13:18;;;;;;;38.38;22.50;;;;;;;13.41;55.76;103047.34;5056728;28;20175;-61
2022/03/22 08:15:43;;;;;;;34.70;21.77;;;;;;;13.64;55.63;103049.34;5056732;28;20033;-62
2022/03/22 08:18:10;;;;;;;37.60;22.02;;;;;;;13.92;54.19;103057.47;5056522;28;20033;-61
2022/03/22 08:20:35;;;;;;;37.83;22.15;;;;;;;14.11;53.03;103050.59;5056599;28;20049;-61
2022/03/22 08:23:06;;;;;;;35.78;21.65;;;;;;;14.49;51.75;103050.00;5056455;28;20483;-61
2022/03/22 08:25:36;;;;;;;39.08;22.48;;;;;;;14.68;50.45;103056.25;5056596;28;20051;-61
2022/03/22 08:28:03;;;;;;;37.13;22.60;;;;;;;14.96;50.01;103051.09;5056591;28;20429;-61
2022/03/22 08:30:30;;;;;;;34.72;21.55;;;;;;;15.29;48.82;103046.78;5055313;28;20456;-61
2022/03/22 08:32:58;;;;;;;40.30;21.85;;;;;;;15.71;48.23;103051.31;5056384;28;20032;-61
2022/03/22 08:35:25;;;;;;;34.50;21.67;;;;;;;16.24;46.97;103047.75;5056421;28;20033;-62
2022/03/22 08:37:51;;;;;;;34.38;20.83;;;;;;;16.82;44.84;103045.84;5056277;28;20416;-64
2022/03/22 08:40:16;;;;;;;34.70;21.92;;;;;;;17.31;43.15;103042.97;5056512;28;20060;-61
2022/03/22 08:42:46;;;;;;;35.42;21.85;;;;;;;17.68;42.07;103044.47;5056247;28;20379;-61
2022/03/22 08:45:17;;;;;;;33.25;21.48;;;;;;;17.80;42.55;103045.28;5056138;28;20130;-61
2022/03/22 08:47:45;;;;;;;31.45;20.52;;;;;;;17.77;42.05;103040.88;5055577;28;20372;-61
2022/03/22 08:50:12;;;;;;;35.53;21.73;;;;;;;17.38;41.95;103044.66;5055940;28;20041;-60
2022/03/22 08:52:39;;;;;;;31.55;21.23;;;;;;;16.97;42.36;103043.13;5054626;28;20033;-60
2022/03/22 08:55:07;;;;;;;34.33;22.73;;;;;;;16.70;43.04;103048.53;5056107;28;20135;-61
2022/03/22 08:57:33;;;;;;;32.97;21.40;;;;;;;16.29;42.85;103046.84;5055986;28;20040;-61
2022/03/22 08:59:58;;;;;;;36.80;21.60;;;;;;;16.02;43.85;103047.78;5055815;28;20035;-60
2022/03/22 09:02:23;;;;;;;37.45;22.50;;;;;;;15.88;44.09;103048.66;5055907;28;20119;-60
2022/03/22 09:07:32;;;;;;;35.08;23.63;;;;;;;15.85;46.42;103054.81;5055821;28;20052;-60
2022/03/22 09:09:58;;;;;;;37.33;24.13;;;;;;;15.88;46.39;103046.91;5055695;28;20036;-61
2022/03/22 09:12:24;;;;;;;34.28;22.77;;;;;;;16.01;45.83;103039.84;5055476;28;20040;-60
2022/03/22 09:14:51;;;;;;;39.50;23.80;;;;;;;16.00;45.37;103043.38;5055798;28;20029;-60
2022/03/22 09:17:16;;;;;;;36.83;23.02;;;;;;;15.99;44.75;103025.75;5055544;28;20029;-61
2022/03/22 09:19:42;;;;;;;35.15;23.40;;;;;;;16.04;45.17;103031.03;5055307;28;20114;-61
2022/03/22 09:22:07;;;;;;;36.17;24.02;;;;;;;16.21;44.69;103038.06;5055525;28;20032;-61
2022/03/22 09:24:34;;;;;;;33.72;23.20;;;;;;;16.29;43.43;103040.69;5055338;28;20029;-62
2022/03/22 09:27:00;;;;;;;37.22;22.05;;;;;;;16.35;42.81;103038.91;5055327;28;20033;-61
2022/03/22 09:29:25;;;;;;;36.08;23.02;;;;;;;16.43;43.49;103038.03;5055305;28;20094;-61
2022/03/22 09:31:51;;;;;;;35.13;22.90;;;;;;;16.44;43.01;103034.50;5055451;28;20111;-60
2022/03/22 09:34:16;;;;;;;33.88;22.08;;;;;;;16.53;42.15;103037.09;5055564;28;20029;-61
2022/03/22 09:36:41;;;;;;;34.08;22.83;;;;;;;16.53;42.47;103039.75;5055216;28;20123;-60
2022/03/22 09:39:07;;;;;;;36.08;22.83;;;;;;;16.64;42.36;103041.50;5055774;28;20029;-61
2022/03/22 09:41:33;;;;;;;35.90;23.30;;;;;;;16.55;42.32;103037.97;5055083;28;20033;-61
2022/03/22 09:43:59;;;;;;;37.22;23.63;;;;;;;16.55;42.32;103040.63;5055154;28;20036;-61
2022/03/22 09:46:24;;;;;;;34.58;22.10;;;;;;;16.63;41.98;103041.50;5055069;28;20037;-61
2022/03/22 09:48:50;;;;;;;36.83;23.30;;;;;;;16.66;41.66;103029.16;5055180;28;20052;-61
2022/03/22 09:54:01;;;;;;;33.67;22.23;;;;;;;17.03;41.25;103037.81;5032508;28;20507;-61
2022/03/22 09:56:30;;;;;;;29.65;21.40;;;;;;;17.20;41.57;103034.19;5034827;28;20042;-61
2022/03/22 09:58:56;;;;;;;34.70;23.00;;;;;;;17.40;40.09;103024.34;5035157;28;20332;-61
2022/03/22 10:01:23;;;;;;;34.33;23.48;;;;;;;17.55;39.80;103028.66;5034778;28;20037;-61
2022/03/22 10:04:13;;;;;;;38.00;22.35;;;;;;;17.67;39.61;103037.41;5035140;28;20043;-61
2022/03/22 10:06:50;;;;;;;34.60;22.08;;;;;;;17.81;39.81;103023.19;5034956;28;20061;-61
2022/03/22 10:09:39;;;;;;;33.65;21.73;;;;;;;17.89;39.24;103024.88;5034473;28;20108;-61
2022/03/22 10:12:10;;;;;;;34.63;22.45;;;;;;;17.88;38.09;103023.13;5034950;28;20112;-61
2022/03/22 10:14:41;;;;;;;36.45;23.30;;;;;;;18.03;39.30;103025.63;5034665;28;20029;-61
2022/03/22 10:17:12;;;;;;;34.33;22.98;;;;;;;17.97;38.72;103017.75;5034708;28;20088;-61
2022/03/22 10:19:49;;;;;;;38.72;24.23;;;;;;;17.92;39.22;103018.66;5034610;28;20051;-61
2022/03/22 10:22:15;;;;;;;35.90;23.60;;;;;;;18.03;38.44;103020.31;5034717;28;20329;-61
2022/03/22 10:24:52;;;;;;;39.30;24.00;;;;;;;18.07;37.88;103010.56;5034576;28;20029;-61
2022/03/22 10:27:27;;;;;;;34.50;22.70;;;;;;;18.16;37.64;103013.16;5034598;28;20128;-61
2022/03/22 10:29:55;;;;;;;34.85;23.25;;;;;;;18.20;37.04;103009.53;5034735;28;20026;-61
2022/03/22 10:32:35;;;;;;;34.92;22.73;;;;;;;18.36;38.42;103018.22;5034659;28;20123;-61
2022/03/22 10:35:16;;;;;;;33.38;21.50;;;;;;;18.41;37.85;103011.97;5034743;28;20056;-61
2022/03/22 10:37:48;;;;;;;32.40;22.13;;;;;;;18.43;36.62;103010.19;5034251;28;20403;-61
2022/03/22 10:40:33;;;;;;;33.88;22.20;;;;;;;18.48;37.27;103007.47;5034368;28;20034;-60
2022/03/22 10:43:01;;;;;;;33.50;21.65;;;;;;;18.63;36.67;103014.41;5034139;28;20040;-61
2022/03/22 10:45:40;;;;;;;35.17;21.58;;;;;;;18.65;36.02;103008.19;5034542;28;20037;-61
2022/03/22 10:48:07;;;;;;;36.78;21.58;;;;;;;18.52;35.40;102998.59;5034389;28;20341;-61
2022/03/22 10:50:37;;;;;;;33.63;22.35;;;;;;;18.62;36.39;103002.91;5034804;28;20026;-61
2022/03/22 10:53:03;;;;;;;34.45;22.10;;;;;;;18.65;36.17;103002.00;5034178;28;20099;-61
2022/03/22 10:55:28;;;;;;;34.30;20.45;;;;;;;18.76;36.22;103002.75;5034871;28;20026;-61
2022/03/22 10:58:00;;;;;;;29.08;19.45;;;;;;;18.80;36.04;103001.81;5034595;28;20495;-62
2022/03/22 11:00:26;;;;;;;33.77;21.70;;;;;;;18.85;35.22;103005.28;5034643;28;20098;-62
2022/03/22 11:02:54;;;;;;;36.33;22.23;;;;;;;18.86;35.74;103001.75;5033978;28;20029;-62
2022/03/22 11:05:21;;;;;;;35.08;20.63;;;;;;;18.92;35.54;103001.63;5034336;28;20135;-62
2022/03/22 11:07:48;;;;;;;30.73;19.88;;;;;;;18.95;35.49;102996.28;5034384;28;20064;-62
2022/03/22 11:10:18;;;;;;;31.73;20.60;;;;;;;19.00;35.16;103002.41;5034298;28;20037;-60
2022/03/22 11:12:44;;;;;;;35.70;21.42;;;;;;;19.02;35.49;103002.41;5034440;28;20057;-60
2022/03/22 11:15:11;;;;;;;34.42;21.42;;;;;;;19.00;34.96;102997.13;5034386;28;20353;-60
2022/03/22 11:17:37;;;;;;;34.47;20.30;;;;;;;19.00;34.93;102999.75;5037741;28;20318;-60
2022/03/22 11:20:09;;;;;;;28.83;18.80;;;;;;;18.93;35.59;102998.09;5037598;28;20056;-60
2022/03/22 11:22:35;;;;;;;34.35;19.92;;;;;;;18.93;35.89;102992.78;5037370;28;20057;-61
2022/03/22 11:25:12;;;;;;;29.58;18.63;;;;;;;19.05;35.67;102992.59;5034915;28;20048;-62
2022/03/22 11:27:38;;;;;;;31.35;18.90;;;;;;;19.04;35.12;102993.53;5036679;28;20059;-62
2022/03/22 11:30:07;;;;;;;29.20;18.88;;;;;;;19.05;35.44;102984.63;5037045;28;20486;-59
2022/03/22 11:35:24;;;;;;;29.27;19.00;;;;;;;19.03;34.49;102978.50;5037915;28;20045;-59
2022/03/22 11:38:01;;;;;;;;;;;;;;;19.20;36.03;102980.03;5038066;28;20456;-60
2022/03/22 11:43:12;;;;;;;29.92;19.05;;;;;;;19.18;34.36;102979.16;5037170;28;20056;-59
2022/03/22 11:45:51;;;;;;;32.53;18.63;;;;;;;19.26;35.32;102987.88;5037583;28;20052;-60
2022/03/22 11:48:28;;;;;;;28.80;18.15;;;;;;;19.43;34.43;102968.13;5037771;28;20067;-60
2022/03/22 11:51:06;;;;;;;28.60;18.30;;;;;;;19.44;34.60;102976.97;5037535;28;20405;-61